createdAt,value
2019-05-09T00:00:23.357Z,10.92
2019-05-09T00:01:23.665Z,10.81
2019-05-09T00:02:24.304Z,10.79
2019-05-09T00:03:24.130Z,10.79
2019-05-09T00:04:23.293Z,10.74
2019-05-09T00:05:25.458Z,10.75
2019-05-09T00:06:24.038Z,10.64
2019-05-09T00:07:23.457Z,10.71
2019-05-09T00:08:23.521Z,10.61
2019-05-09T00:09:23.590Z,10.72
2019-05-09T00:10:37.714Z,10.69
2019-05-09T00:11:24.586Z,10.59
2019-05-09T00:12:23.766Z,10.56
2019-05-09T00:13:23.897Z,10.49
2019-05-09T00:14:23.923Z,10.46
2019-05-09T00:15:24.251Z,10.41
2019-05-09T00:16:24.019Z,10.35
2019-05-09T00:17:24.080Z,10.46
2019-05-09T00:18:24.138Z,10.42
2019-05-09T00:19:24.222Z,10.37
2019-05-09T00:20:24.264Z,10.48
2019-05-09T00:21:24.322Z,10.38
2019-05-09T00:22:24.387Z,10.44
2019-05-09T00:23:24.447Z,10.34
2019-05-09T00:24:24.514Z,10.42
2019-05-09T00:25:24.578Z,10.41
2019-05-09T00:26:24.630Z,10.37
2019-05-09T00:27:24.694Z,10.40
2019-05-09T00:28:24.754Z,10.34
2019-05-09T00:29:24.823Z,10.34
2019-05-09T00:30:24.886Z,10.38
2019-05-09T00:31:24.943Z,10.40
2019-05-09T00:32:25.003Z,10.48
2019-05-09T00:33:25.065Z,10.46
2019-05-09T00:34:25.143Z,10.44
2019-05-09T00:35:25.189Z,10.40
2019-05-09T00:36:25.248Z,10.44
2019-05-09T00:37:25.311Z,10.42
2019-05-09T00:38:25.376Z,10.53
2019-05-09T00:39:25.445Z,10.46
2019-05-09T00:40:25.504Z,10.49
2019-05-09T00:41:25.561Z,10.49
2019-05-09T00:42:25.619Z,10.54
2019-05-09T00:43:25.680Z,10.53
2019-05-09T00:44:25.747Z,10.53
2019-05-09T00:45:25.811Z,10.56
2019-05-09T00:46:25.871Z,10.54
2019-05-09T00:47:25.928Z,10.56
2019-05-09T00:48:25.988Z,10.48
2019-05-09T00:49:26.061Z,10.53
2019-05-09T00:50:29.277Z,10.51
2019-05-09T00:51:26.177Z,10.53
2019-05-09T00:52:26.236Z,10.46
2019-05-09T00:53:26.296Z,10.51
2019-05-09T00:54:26.376Z,10.51
2019-05-09T00:55:26.427Z,10.53
2019-05-09T00:56:26.482Z,10.56
2019-05-09T00:57:26.544Z,10.53
2019-05-09T00:58:26.609Z,10.57
2019-05-09T00:59:26.680Z,10.48
2019-05-09T01:00:26.737Z,10.51
2019-05-09T01:01:26.792Z,10.51
2019-05-09T01:02:26.860Z,10.49
2019-05-09T01:03:26.917Z,10.53
2019-05-09T01:04:26.989Z,10.51
2019-05-09T01:05:27.049Z,10.53
2019-05-09T01:06:27.106Z,10.59
2019-05-09T01:07:27.161Z,10.59
2019-05-09T01:08:27.222Z,10.56
2019-05-09T01:09:27.396Z,10.56
2019-05-09T01:10:27.344Z,10.51
2019-05-09T01:11:27.409Z,10.56
2019-05-09T01:12:27.469Z,10.56
2019-05-09T01:13:27.532Z,10.51
2019-05-09T01:14:27.600Z,10.56
2019-05-09T01:15:27.660Z,10.54
2019-05-09T01:16:27.717Z,10.49
2019-05-09T01:17:27.780Z,10.51
2019-05-09T01:18:27.845Z,10.54
2019-05-09T01:19:27.909Z,10.49
2019-05-09T01:20:27.972Z,10.53
2019-05-09T01:21:28.021Z,10.51
2019-05-09T01:22:28.085Z,10.41
2019-05-09T01:23:28.149Z,10.54
2019-05-09T01:24:28.231Z,10.46
2019-05-09T01:25:28.271Z,10.46
2019-05-09T01:26:28.334Z,10.46
2019-05-09T01:27:28.394Z,10.51
2019-05-09T01:28:28.454Z,10.46
2019-05-09T01:29:28.525Z,10.44
2019-05-09T01:30:28.586Z,10.46
2019-05-09T01:31:28.641Z,10.42
2019-05-09T01:32:28.703Z,10.33
2019-05-09T01:33:28.762Z,10.35
2019-05-09T01:34:28.834Z,10.51
2019-05-09T01:35:28.895Z,10.38
2019-05-09T01:36:28.950Z,10.48
2019-05-09T01:37:29.014Z,10.46
2019-05-09T01:38:29.074Z,10.35
2019-05-09T01:39:29.231Z,10.41
2019-05-09T01:40:29.195Z,10.42
2019-05-09T01:41:33.398Z,10.38
2019-05-09T01:42:29.318Z,10.37
2019-05-09T01:43:29.382Z,10.42
2019-05-09T01:44:29.462Z,10.44
2019-05-09T01:45:29.511Z,10.42
2019-05-09T01:46:29.566Z,10.46
2019-05-09T01:47:29.626Z,10.34
2019-05-09T01:48:29.690Z,10.40
2019-05-09T01:49:29.761Z,10.42
2019-05-09T01:50:29.820Z,10.41
2019-05-09T01:51:29.874Z,10.37
2019-05-09T01:52:29.935Z,10.40
2019-05-09T01:53:29.999Z,10.41
2019-05-09T01:54:30.066Z,10.44
2019-05-09T01:55:30.127Z,10.40
2019-05-09T01:56:30.183Z,10.31
2019-05-09T01:57:30.248Z,10.37
2019-05-09T01:58:30.307Z,10.35
2019-05-09T01:59:30.467Z,10.35
2019-05-09T02:00:30.432Z,10.37
2019-05-09T02:01:30.492Z,10.35
2019-05-09T02:02:30.551Z,10.35
2019-05-09T02:03:30.621Z,10.26
2019-05-09T02:04:30.684Z,10.25
2019-05-09T02:05:30.750Z,10.25
2019-05-09T02:06:30.800Z,10.28
2019-05-09T02:07:33.115Z,10.26
2019-05-09T02:08:30.923Z,10.23
2019-05-09T02:09:30.996Z,10.34
2019-05-09T02:10:31.067Z,10.23
2019-05-09T02:11:41.711Z,10.16
2019-05-09T02:12:31.172Z,10.19
2019-05-09T02:13:33.623Z,10.15
2019-05-09T02:14:31.388Z,10.10
2019-05-09T02:15:31.360Z,10.19
2019-05-09T02:16:33.640Z,10.07
2019-05-09T02:17:33.425Z,10.22
2019-05-09T02:18:33.401Z,10.13
2019-05-09T02:19:33.192Z,10.17
2019-05-09T02:20:33.260Z,10.12
2019-05-09T02:21:31.724Z,10.13
2019-05-09T02:22:34.144Z,10.10
2019-05-09T02:23:33.885Z,10.04
2019-05-09T02:24:33.826Z,10.12
2019-05-09T02:25:33.495Z,10.02
2019-05-09T02:26:33.485Z,10.02
2019-05-09T02:27:33.201Z,10.04
2019-05-09T02:28:34.103Z,10.05
2019-05-09T02:29:33.745Z,10.01
2019-05-09T02:30:35.773Z,9.94
2019-05-09T02:31:35.239Z,9.89
2019-05-09T02:32:34.751Z,9.91
2019-05-09T02:33:34.752Z,9.89
2019-05-09T02:34:35.357Z,9.89
2019-05-09T02:35:39.628Z,9.89
2019-05-09T02:36:32.653Z,9.87
2019-05-09T02:37:32.710Z,9.80
2019-05-09T02:38:32.783Z,9.82
2019-05-09T02:39:32.841Z,9.86
2019-05-09T02:40:32.898Z,9.80
2019-05-09T02:41:32.968Z,9.76
2019-05-09T02:42:33.017Z,9.80
2019-05-09T02:43:33.079Z,9.76
2019-05-09T02:44:33.229Z,9.76
2019-05-09T02:45:33.199Z,9.68
2019-05-09T02:46:33.274Z,9.66
2019-05-09T02:47:33.326Z,9.65
2019-05-09T02:48:33.393Z,9.61
2019-05-09T02:49:33.454Z,9.62
2019-05-09T02:50:33.514Z,9.54
2019-05-09T02:51:33.570Z,9.58
2019-05-09T02:52:33.632Z,9.50
2019-05-09T02:53:33.692Z,9.50
2019-05-09T02:54:33.767Z,9.56
2019-05-09T02:55:33.822Z,9.46
2019-05-09T02:56:33.880Z,9.40
2019-05-09T02:57:33.938Z,9.41
2019-05-09T02:58:34.000Z,9.32
2019-05-09T02:59:34.079Z,9.31
2019-05-09T03:00:34.130Z,9.26
2019-05-09T03:01:34.186Z,9.23
2019-05-09T03:02:34.246Z,9.19
2019-05-09T03:03:34.310Z,9.22
2019-05-09T03:04:34.381Z,9.10
2019-05-09T03:05:34.438Z,9.11
2019-05-09T03:06:34.492Z,9.08
2019-05-09T03:07:34.552Z,9.14
2019-05-09T03:08:34.613Z,9.13
2019-05-09T03:09:34.689Z,9.14
2019-05-09T03:10:34.744Z,9.06
2019-05-09T03:11:34.805Z,9.00
2019-05-09T03:12:36.606Z,8.99
2019-05-09T03:13:34.918Z,8.91
2019-05-09T03:14:34.992Z,8.94
2019-05-09T03:15:35.047Z,9.00
2019-05-09T03:16:35.107Z,8.89
2019-05-09T03:17:35.163Z,8.94
2019-05-09T03:18:35.223Z,8.89
2019-05-09T03:19:38.416Z,8.89
2019-05-09T03:20:35.349Z,8.91
2019-05-09T03:21:38.764Z,8.89
2019-05-09T03:22:35.469Z,8.89
2019-05-09T03:23:38.574Z,8.84
2019-05-09T03:24:35.600Z,8.76
2019-05-09T03:25:35.657Z,8.89
2019-05-09T03:26:38.440Z,8.88
2019-05-09T03:27:38.922Z,8.87
2019-05-09T03:28:38.674Z,8.91
2019-05-09T03:29:35.904Z,8.89
2019-05-09T03:30:39.351Z,8.89
2019-05-09T03:31:39.371Z,8.89
2019-05-09T03:32:38.751Z,8.92
2019-05-09T03:33:40.333Z,8.89
2019-05-09T03:34:37.262Z,8.94
2019-05-09T03:35:37.881Z,8.92
2019-05-09T03:36:38.412Z,8.92
2019-05-09T03:37:37.844Z,8.94
2019-05-09T03:38:37.724Z,8.92
2019-05-09T03:39:37.735Z,9.08
2019-05-09T03:40:37.757Z,8.94
2019-05-09T03:41:36.628Z,9.10
2019-05-09T03:42:43.382Z,9.08
2019-05-09T03:43:37.699Z,9.14
2019-05-09T03:44:38.525Z,9.18
2019-05-09T03:45:37.676Z,9.11
2019-05-09T03:46:38.443Z,9.21
2019-05-09T03:47:37.662Z,9.23
2019-05-09T03:48:37.485Z,9.29
2019-05-09T03:49:37.675Z,9.25
2019-05-09T03:50:38.311Z,9.26
2019-05-09T03:51:37.884Z,9.23
2019-05-09T03:52:37.375Z,9.26
2019-05-09T03:53:37.936Z,9.26
2019-05-09T03:54:37.662Z,9.21
2019-05-09T03:55:38.385Z,9.31
2019-05-09T03:56:37.612Z,9.37
2019-05-09T03:57:37.601Z,9.37
2019-05-09T03:58:38.611Z,9.31
2019-05-09T03:59:38.213Z,9.39
2019-05-09T04:00:37.794Z,9.44
2019-05-09T04:01:38.242Z,9.39
2019-05-09T04:02:38.393Z,9.48
2019-05-09T04:03:37.970Z,9.46
2019-05-09T04:04:38.430Z,9.47
2019-05-09T04:05:38.098Z,9.48
2019-05-09T04:06:39.128Z,9.50
2019-05-09T04:07:38.505Z,9.51
2019-05-09T04:08:38.275Z,9.56
2019-05-09T04:09:39.736Z,9.56
2019-05-09T04:10:38.567Z,9.55
2019-05-09T04:11:38.458Z,9.51
2019-05-09T04:12:52.801Z,9.50
2019-05-09T04:13:38.646Z,9.51
2019-05-09T04:14:38.647Z,9.54
2019-05-09T04:15:38.714Z,9.55
2019-05-09T04:16:38.762Z,9.55
2019-05-09T04:17:38.829Z,9.66
2019-05-09T04:18:40.320Z,9.54
2019-05-09T04:19:40.541Z,9.61
2019-05-09T04:20:39.015Z,9.55
2019-05-09T04:21:39.066Z,9.48
2019-05-09T04:22:39.136Z,9.54
2019-05-09T04:23:39.204Z,9.51
2019-05-09T04:24:39.363Z,9.62
2019-05-09T04:25:39.322Z,9.62
2019-05-09T04:26:39.375Z,9.58
2019-05-09T04:27:39.457Z,9.58
2019-05-09T04:28:39.965Z,9.65
2019-05-09T04:29:39.563Z,9.61
2019-05-09T04:30:39.622Z,9.64
2019-05-09T04:31:39.692Z,9.62
2019-05-09T04:32:39.738Z,9.61
2019-05-09T04:33:39.804Z,9.64
2019-05-09T04:34:39.867Z,9.64
2019-05-09T04:35:39.936Z,9.68
2019-05-09T04:36:39.994Z,9.69
2019-05-09T04:37:40.048Z,9.62
2019-05-09T04:38:40.115Z,9.69
2019-05-09T04:39:40.747Z,9.65
2019-05-09T04:40:44.994Z,9.72
2019-05-09T04:41:40.292Z,9.64
2019-05-09T04:42:44.270Z,9.72
2019-05-09T04:43:40.420Z,9.69
2019-05-09T04:44:40.481Z,9.72
2019-05-09T04:45:41.930Z,9.72
2019-05-09T04:46:40.596Z,9.77
2019-05-09T04:47:43.418Z,9.79
2019-05-09T04:48:40.719Z,9.84
2019-05-09T04:49:44.977Z,9.83
2019-05-09T04:50:40.852Z,9.87
2019-05-09T04:51:40.904Z,9.87
2019-05-09T04:52:40.964Z,9.89
2019-05-09T04:53:41.025Z,9.79
2019-05-09T04:54:41.102Z,9.86
2019-05-09T04:55:41.156Z,9.89
2019-05-09T04:56:41.208Z,9.83
2019-05-09T04:57:41.272Z,9.86
2019-05-09T04:58:41.334Z,9.82
2019-05-09T04:59:41.401Z,9.92
2019-05-09T05:00:41.460Z,9.94
2019-05-09T05:01:41.523Z,9.86
2019-05-09T05:02:41.576Z,9.97
2019-05-09T05:03:41.641Z,10.04
2019-05-09T05:04:41.705Z,9.98
2019-05-09T05:05:41.770Z,10.02
2019-05-09T05:06:41.827Z,10.07
2019-05-09T05:07:41.885Z,10.05
2019-05-09T05:08:41.946Z,10.09
2019-05-09T05:09:42.014Z,10.10
2019-05-09T05:10:42.082Z,10.23
2019-05-09T05:11:42.131Z,10.31
2019-05-09T05:12:42.197Z,10.35
2019-05-09T05:13:42.254Z,10.40
2019-05-09T05:14:42.406Z,10.38
2019-05-09T05:15:42.377Z,10.40
2019-05-09T05:16:42.440Z,10.37
2019-05-09T05:17:42.503Z,10.38
2019-05-09T05:18:42.562Z,10.40
2019-05-09T05:19:42.629Z,10.34
2019-05-09T05:20:42.689Z,10.42
2019-05-09T05:21:42.746Z,10.41
2019-05-09T05:22:42.805Z,10.44
2019-05-09T05:23:42.870Z,10.44
2019-05-09T05:24:42.938Z,10.49
2019-05-09T05:25:42.998Z,10.51
2019-05-09T05:26:43.055Z,10.60
2019-05-09T05:27:43.114Z,10.71
2019-05-09T05:28:43.177Z,10.64
2019-05-09T05:29:43.238Z,10.59
2019-05-09T05:30:43.390Z,10.63
2019-05-09T05:31:43.362Z,10.71
2019-05-09T05:32:43.427Z,10.75
2019-05-09T05:33:43.485Z,10.75
2019-05-09T05:34:43.546Z,10.79
2019-05-09T05:35:43.614Z,10.94
2019-05-09T05:36:43.678Z,10.93
2019-05-09T05:37:43.748Z,10.96
2019-05-09T05:38:43.795Z,11.08
2019-05-09T05:39:43.854Z,10.96
2019-05-09T05:40:46.440Z,11.10
2019-05-09T05:41:43.987Z,11.07
2019-05-09T05:42:44.047Z,11.00
2019-05-09T05:43:44.786Z,11.07
2019-05-09T05:44:44.166Z,11.10
2019-05-09T05:45:44.227Z,11.12
2019-05-09T05:46:47.485Z,11.11
2019-05-09T05:47:44.351Z,11.12
2019-05-09T05:48:44.411Z,11.15
2019-05-09T05:49:44.475Z,11.14
2019-05-09T05:50:44.534Z,11.11
2019-05-09T05:51:44.607Z,11.12
2019-05-09T05:52:44.671Z,11.14
2019-05-09T05:53:44.723Z,11.12
2019-05-09T05:54:44.783Z,11.12
2019-05-09T05:55:44.849Z,11.23
2019-05-09T05:56:44.918Z,11.11
2019-05-09T05:57:44.975Z,11.27
2019-05-09T05:58:45.031Z,11.26
2019-05-09T05:59:45.095Z,11.37
2019-05-09T06:00:45.158Z,11.40
2019-05-09T06:01:47.541Z,11.50
2019-05-09T06:02:47.710Z,11.50
2019-05-09T06:03:45.345Z,11.45
2019-05-09T06:04:45.405Z,11.52
2019-05-09T06:05:49.318Z,11.62
2019-05-09T06:06:47.832Z,11.57
2019-05-09T06:07:45.599Z,11.68
2019-05-09T06:08:45.651Z,11.52
2019-05-09T06:09:47.696Z,11.63
2019-05-09T06:10:48.162Z,11.80
2019-05-09T06:11:48.239Z,11.75
2019-05-09T06:12:48.036Z,11.80
2019-05-09T06:13:54.438Z,11.87
2019-05-09T06:14:47.966Z,11.80
2019-05-09T06:15:48.111Z,11.90
2019-05-09T06:16:48.310Z,11.88
2019-05-09T06:17:48.477Z,11.91
2019-05-09T06:18:47.525Z,11.95
2019-05-09T06:19:48.182Z,11.99
2019-05-09T06:20:48.699Z,11.99
2019-05-09T06:21:48.481Z,12.03
2019-05-09T06:22:47.650Z,12.00
2019-05-09T06:23:48.203Z,12.12
2019-05-09T06:24:47.891Z,12.21
2019-05-09T06:25:48.428Z,12.32
2019-05-09T06:26:47.922Z,12.40
2019-05-09T06:27:48.190Z,12.47
2019-05-09T06:28:48.112Z,12.54
2019-05-09T06:29:47.693Z,12.58
2019-05-09T06:30:52.025Z,12.68
2019-05-09T06:31:48.411Z,12.75
2019-05-09T06:32:47.799Z,12.91
2019-05-09T06:33:52.993Z,13.18
2019-05-09T06:34:47.859Z,13.30
2019-05-09T06:35:48.150Z,13.79
2019-05-09T06:36:48.923Z,14.35
2019-05-09T06:37:50.021Z,15.02
2019-05-09T06:38:49.542Z,15.43
2019-05-09T06:39:48.735Z,15.42
2019-05-09T06:40:47.705Z,15.37
2019-05-09T06:41:48.567Z,15.42
2019-05-09T06:42:48.852Z,15.52
2019-05-09T06:43:49.678Z,15.70
2019-05-09T06:44:48.522Z,15.86
2019-05-09T06:45:48.636Z,16.24
2019-05-09T06:46:48.286Z,16.75
2019-05-09T06:47:48.724Z,16.89
2019-05-09T06:48:49.022Z,17.33
2019-05-09T06:49:51.022Z,17.80
2019-05-09T06:50:48.458Z,18.07
2019-05-09T06:51:48.402Z,18.41
2019-05-09T06:52:48.450Z,18.81
2019-05-09T06:53:48.907Z,18.96
2019-05-09T06:54:48.738Z,19.47
2019-05-09T06:55:48.655Z,20.00
2019-05-09T06:56:50.547Z,20.19
2019-05-09T06:57:49.077Z,20.62
2019-05-09T06:58:48.859Z,20.90
2019-05-09T06:59:48.947Z,21.12
2019-05-09T07:00:49.018Z,21.17
2019-05-09T07:01:51.026Z,21.12
2019-05-09T07:02:49.143Z,21.35
2019-05-09T07:03:49.209Z,21.96
2019-05-09T07:04:49.275Z,22.14
2019-05-09T07:05:49.347Z,22.18
2019-05-09T07:06:49.423Z,22.53
2019-05-09T07:07:49.503Z,22.70
2019-05-09T07:08:49.565Z,22.90
2019-05-09T07:09:49.634Z,22.18
2019-05-09T07:10:49.710Z,21.43
2019-05-09T07:11:49.783Z,21.17
2019-05-09T07:12:49.857Z,20.62
2019-05-09T07:13:50.535Z,19.92
2019-05-09T07:14:49.991Z,19.40
2019-05-09T07:15:50.063Z,18.96
2019-05-09T07:16:50.216Z,18.62
2019-05-09T07:17:50.199Z,18.25
2019-05-09T07:18:50.271Z,17.71
2019-05-09T07:19:50.340Z,17.42
2019-05-09T07:20:50.411Z,17.09
2019-05-09T07:21:50.483Z,16.90
2019-05-09T07:22:50.556Z,16.87
2019-05-09T07:23:50.615Z,16.74
2019-05-09T07:24:50.684Z,16.56
2019-05-09T07:25:50.753Z,16.53
2019-05-09T07:26:50.827Z,16.49
2019-05-09T07:27:51.542Z,16.35
2019-05-09T07:28:50.967Z,16.29
2019-05-09T07:29:51.036Z,16.28
2019-05-09T07:30:52.044Z,16.10
2019-05-09T07:31:51.244Z,16.09
2019-05-09T07:32:51.224Z,16.20
2019-05-09T07:33:51.292Z,16.89
2019-05-09T07:34:51.360Z,17.52
2019-05-09T07:35:51.433Z,18.70
2019-05-09T07:36:51.501Z,19.47
2019-05-09T07:37:51.572Z,19.85
2019-05-09T07:38:51.628Z,20.24
2019-05-09T07:39:51.697Z,20.51
2019-05-09T07:40:51.765Z,20.18
2019-05-09T07:41:51.841Z,20.34
2019-05-09T07:42:51.909Z,20.00
2019-05-09T07:43:52.546Z,19.64
2019-05-09T07:44:52.608Z,19.21
2019-05-09T07:45:53.224Z,18.90
2019-05-09T07:46:52.261Z,18.50
2019-05-09T07:47:52.241Z,18.20
2019-05-09T07:48:52.308Z,18.08
2019-05-09T07:49:52.382Z,18.00
2019-05-09T07:50:52.444Z,17.44
2019-05-09T07:51:55.050Z,17.34
2019-05-09T07:52:52.589Z,18.07
2019-05-09T07:53:52.649Z,18.41
2019-05-09T07:54:52.717Z,18.38
2019-05-09T07:55:52.785Z,18.23
2019-05-09T07:56:52.865Z,18.16
2019-05-09T07:57:55.397Z,18.26
2019-05-09T07:58:52.989Z,17.90
2019-05-09T07:59:53.054Z,17.31
2019-05-09T08:00:53.121Z,17.04
2019-05-09T08:01:53.206Z,16.87
2019-05-09T08:02:53.257Z,16.97
2019-05-09T08:03:53.325Z,17.27
2019-05-09T08:04:53.391Z,16.99
2019-05-09T08:05:53.457Z,16.76
2019-05-09T08:06:54.054Z,16.68
2019-05-09T08:07:53.598Z,16.36
2019-05-09T08:08:53.658Z,16.29
2019-05-09T08:10:04.723Z,16.16
2019-05-09T08:10:53.791Z,15.95
2019-05-09T08:11:53.876Z,16.00
2019-05-09T08:12:53.930Z,16.02
2019-05-09T08:13:53.987Z,16.21
2019-05-09T08:15:07.498Z,16.72
2019-05-09T08:15:54.123Z,17.22
2019-05-09T08:16:55.056Z,17.19
2019-05-09T08:17:54.257Z,17.33
2019-05-09T08:18:54.318Z,17.26
2019-05-09T08:19:54.387Z,17.49
2019-05-09T08:20:54.453Z,17.44
2019-05-09T08:21:54.522Z,17.67
2019-05-09T08:22:59.913Z,17.49
2019-05-09T08:23:54.650Z,17.59
2019-05-09T08:24:54.715Z,17.70
2019-05-09T08:25:54.780Z,17.89
2019-05-09T08:26:54.854Z,17.83
2019-05-09T08:27:54.931Z,17.67
2019-05-09T08:28:54.979Z,17.68
2019-05-09T08:29:55.047Z,17.70
2019-05-09T08:30:55.111Z,17.49
2019-05-09T08:31:55.268Z,17.39
2019-05-09T08:32:55.243Z,17.26
2019-05-09T08:33:55.323Z,17.20
2019-05-09T08:34:57.481Z,17.14
2019-05-09T08:35:55.443Z,16.94
2019-05-09T08:36:57.795Z,17.01
2019-05-09T08:37:58.029Z,16.84
2019-05-09T08:38:58.373Z,16.76
2019-05-09T08:39:57.795Z,16.68
2019-05-09T08:40:55.767Z,16.58
2019-05-09T08:41:55.840Z,16.54
2019-05-09T08:42:58.521Z,16.50
2019-05-09T08:43:57.551Z,16.28
2019-05-09T08:44:57.756Z,16.17
2019-05-09T08:45:57.648Z,16.28
2019-05-09T08:46:57.474Z,16.10
2019-05-09T08:47:57.781Z,16.10
2019-05-09T08:48:57.638Z,16.23
2019-05-09T08:49:58.629Z,16.39
2019-05-09T08:50:58.254Z,16.26
2019-05-09T08:52:10.288Z,16.21
2019-05-09T08:52:57.676Z,16.26
2019-05-09T08:53:57.788Z,16.26
2019-05-09T08:54:57.835Z,16.23
2019-05-09T08:55:58.088Z,16.24
2019-05-09T08:56:58.576Z,16.24
2019-05-09T08:57:58.686Z,16.26
2019-05-09T08:59:01.222Z,16.42
2019-05-09T09:00:03.581Z,16.50
2019-05-09T09:01:04.095Z,16.64
2019-05-09T09:02:12.203Z,16.84
2019-05-09T09:02:57.523Z,16.84
2019-05-09T09:04:04.077Z,16.72
2019-05-09T09:05:00.080Z,16.71
2019-05-09T09:05:57.892Z,16.81
2019-05-09T09:06:57.725Z,16.89
2019-05-09T09:07:58.021Z,16.81
2019-05-09T09:09:02.613Z,16.91
2019-05-09T09:09:58.584Z,16.91
2019-05-09T09:10:57.873Z,16.89
2019-05-09T09:11:58.590Z,16.69
2019-05-09T09:12:58.279Z,16.74
2019-05-09T09:13:57.929Z,16.99
2019-05-09T09:14:58.737Z,16.99
2019-05-09T09:16:14.340Z,17.06
2019-05-09T09:16:58.217Z,17.22
2019-05-09T09:17:58.207Z,17.33
2019-05-09T09:18:58.598Z,17.38
2019-05-09T09:20:00.114Z,17.54
2019-05-09T09:20:59.096Z,17.59
2019-05-09T09:22:00.657Z,17.74
2019-05-09T09:22:58.590Z,17.78
2019-05-09T09:23:58.579Z,17.94
2019-05-09T09:24:58.875Z,17.98
2019-05-09T09:25:58.710Z,18.00
2019-05-09T09:26:58.783Z,17.98
2019-05-09T09:27:58.850Z,18.08
2019-05-09T09:28:58.910Z,18.13
2019-05-09T09:30:15.515Z,17.97
2019-05-09T09:30:59.206Z,18.04
2019-05-09T09:32:00.091Z,18.03
2019-05-09T09:32:59.171Z,17.98
2019-05-09T09:33:59.234Z,17.97
2019-05-09T09:34:59.303Z,17.83
2019-05-09T09:35:59.371Z,17.90
2019-05-09T09:37:03.830Z,17.95
2019-05-09T09:37:59.507Z,18.07
2019-05-09T09:39:02.885Z,18.18
2019-05-09T09:40:00.603Z,18.70
2019-05-09T09:40:59.701Z,18.65
2019-05-09T09:41:59.772Z,18.71
2019-05-09T09:42:59.835Z,18.93
2019-05-09T09:43:59.908Z,19.22
2019-05-09T09:45:00.600Z,19.08
2019-05-09T09:46:10.395Z,19.21
2019-05-09T09:47:00.200Z,19.21
2019-05-09T09:48:00.168Z,19.12
2019-05-09T09:49:00.230Z,19.07
2019-05-09T09:50:00.561Z,19.07
2019-05-09T09:51:00.359Z,19.14
2019-05-09T09:52:00.435Z,19.04
2019-05-09T09:53:00.497Z,18.83
2019-05-09T09:54:00.559Z,18.62
2019-05-09T09:55:00.648Z,18.55
2019-05-09T09:56:00.695Z,18.53
2019-05-09T09:57:00.768Z,18.49
2019-05-09T09:58:00.845Z,18.41
2019-05-09T09:59:00.891Z,18.25
2019-05-09T10:00:00.962Z,18.18
2019-05-09T10:01:03.401Z,18.01
2019-05-09T10:02:01.184Z,17.98
2019-05-09T10:03:01.155Z,18.03
2019-05-09T10:04:15.560Z,17.90
2019-05-09T10:05:01.289Z,17.94
2019-05-09T10:06:01.356Z,17.76
2019-05-09T10:07:01.428Z,17.82
2019-05-09T10:08:01.497Z,17.76
2019-05-09T10:09:01.552Z,17.57
2019-05-09T10:10:01.621Z,17.48
2019-05-09T10:11:01.695Z,17.64
2019-05-09T10:12:01.806Z,17.70
2019-05-09T10:13:04.337Z,17.85
2019-05-09T10:14:02.608Z,17.98
2019-05-09T10:15:01.949Z,18.00
2019-05-09T10:16:02.020Z,17.89
2019-05-09T10:17:02.117Z,17.67
2019-05-09T10:18:02.152Z,17.48
2019-05-09T10:19:02.213Z,17.19
2019-05-09T10:20:03.113Z,17.08
2019-05-09T10:21:02.345Z,17.05
2019-05-09T10:22:02.418Z,17.09
2019-05-09T10:23:11.240Z,17.02
2019-05-09T10:24:02.546Z,17.14
2019-05-09T10:25:02.609Z,17.16
2019-05-09T10:26:02.673Z,17.23
2019-05-09T10:27:08.376Z,17.06
2019-05-09T10:28:02.814Z,16.91
2019-05-09T10:29:02.870Z,17.04
2019-05-09T10:30:02.933Z,16.97
2019-05-09T10:31:03.001Z,16.84
2019-05-09T10:32:03.289Z,16.89
2019-05-09T10:33:03.161Z,16.84
2019-05-09T10:34:04.121Z,16.79
2019-05-09T10:35:03.262Z,16.83
2019-05-09T10:36:04.843Z,16.72
2019-05-09T10:37:03.396Z,16.72
2019-05-09T10:38:03.462Z,16.65
2019-05-09T10:39:03.522Z,16.60
2019-05-09T10:40:03.613Z,16.54
2019-05-09T10:41:04.618Z,16.57
2019-05-09T10:42:03.725Z,16.36
2019-05-09T10:43:03.792Z,16.38
2019-05-09T10:44:04.617Z,16.29
2019-05-09T10:45:03.910Z,16.35
2019-05-09T10:46:03.982Z,16.31
2019-05-09T10:47:04.058Z,16.21
2019-05-09T10:48:04.113Z,16.17
2019-05-09T10:49:04.170Z,16.28
2019-05-09T10:50:04.236Z,16.23
2019-05-09T10:51:06.035Z,16.32
2019-05-09T10:52:04.374Z,16.31
2019-05-09T10:53:04.438Z,16.23
2019-05-09T10:54:04.499Z,16.26
2019-05-09T10:55:04.559Z,16.28
2019-05-09T10:56:04.626Z,16.36
2019-05-09T10:57:04.699Z,16.31
2019-05-09T10:58:04.763Z,16.33
2019-05-09T10:59:04.825Z,16.32
2019-05-09T11:00:04.913Z,16.38
2019-05-09T11:01:04.952Z,16.56
2019-05-09T11:02:05.023Z,16.54
2019-05-09T11:03:05.088Z,16.60
2019-05-09T11:04:07.910Z,16.72
2019-05-09T11:05:05.207Z,16.87
2019-05-09T11:06:05.274Z,17.01
2019-05-09T11:07:07.875Z,17.12
2019-05-09T11:08:07.921Z,17.22
2019-05-09T11:09:05.472Z,17.33
2019-05-09T11:10:24.020Z,17.26
2019-05-09T11:11:08.652Z,17.42
2019-05-09T11:12:07.843Z,17.48
2019-05-09T11:13:07.513Z,17.67
2019-05-09T11:14:08.333Z,17.67
2019-05-09T11:15:08.423Z,17.79
2019-05-09T11:16:07.696Z,17.80
2019-05-09T11:17:12.483Z,17.90
2019-05-09T11:18:08.132Z,18.20
2019-05-09T11:19:08.066Z,18.50
2019-05-09T11:20:08.666Z,18.73
2019-05-09T11:21:08.379Z,18.71
2019-05-09T11:22:07.995Z,18.93
2019-05-09T11:23:08.125Z,18.93
2019-05-09T11:24:08.415Z,19.15
2019-05-09T11:25:08.630Z,19.36
2019-05-09T11:26:06.580Z,19.48
2019-05-09T11:27:08.462Z,19.34
2019-05-09T11:28:12.582Z,19.26
2019-05-09T11:29:07.983Z,18.88
2019-05-09T11:30:08.397Z,18.84
2019-05-09T11:31:08.162Z,18.80
2019-05-09T11:32:08.117Z,18.84
2019-05-09T11:33:07.812Z,18.90
2019-05-09T11:34:08.860Z,18.84
2019-05-09T11:35:08.976Z,18.88
2019-05-09T11:36:09.735Z,18.80
2019-05-09T11:37:08.501Z,18.83
2019-05-09T11:38:08.342Z,18.90
2019-05-09T11:39:10.794Z,18.98
2019-05-09T11:40:07.500Z,19.15
2019-05-09T11:41:08.307Z,19.11
2019-05-09T11:42:07.642Z,19.29
2019-05-09T11:43:07.704Z,19.27
2019-05-09T11:44:08.466Z,19.33
2019-05-09T11:45:07.919Z,19.44
2019-05-09T11:46:10.233Z,19.44
2019-05-09T11:47:27.530Z,19.62
2019-05-09T11:48:08.338Z,19.71
2019-05-09T11:49:08.620Z,20.00
2019-05-09T11:50:08.976Z,20.00
2019-05-09T11:51:08.949Z,19.92
2019-05-09T11:52:08.478Z,20.03
2019-05-09T11:53:08.920Z,20.11
2019-05-09T11:54:09.188Z,19.95
2019-05-09T11:55:27.454Z,20.02
2019-05-09T11:56:08.565Z,19.81
2019-05-09T11:57:08.639Z,19.86
2019-05-09T11:58:08.702Z,19.71
2019-05-09T11:59:08.773Z,19.85
2019-05-09T12:00:08.838Z,19.94
2019-05-09T12:01:08.914Z,19.91
2019-05-09T12:02:09.065Z,19.74
2019-05-09T12:03:09.269Z,19.85
2019-05-09T12:04:09.098Z,19.99
2019-05-09T12:05:09.161Z,20.22
2019-05-09T12:06:09.229Z,20.22
2019-05-09T12:07:09.390Z,20.37
2019-05-09T12:08:09.366Z,20.13
2019-05-09T12:09:09.433Z,20.26
2019-05-09T12:10:09.502Z,20.22
2019-05-09T12:11:09.570Z,20.32
2019-05-09T12:12:09.642Z,20.34
2019-05-09T12:13:09.707Z,20.34
2019-05-09T12:14:09.771Z,20.62
2019-05-09T12:15:09.844Z,20.70
2019-05-09T12:16:09.898Z,20.87
2019-05-09T12:17:09.975Z,20.92
2019-05-09T12:18:11.573Z,21.07
2019-05-09T12:19:10.098Z,21.14
2019-05-09T12:20:13.478Z,20.93
2019-05-09T12:21:10.239Z,20.77
2019-05-09T12:22:10.310Z,20.67
2019-05-09T12:23:10.374Z,20.69
2019-05-09T12:24:10.435Z,20.60
2019-05-09T12:25:10.503Z,20.48
2019-05-09T12:26:10.587Z,20.47
2019-05-09T12:27:10.651Z,20.51
2019-05-09T12:28:10.711Z,20.44
2019-05-09T12:29:10.772Z,20.70
2019-05-09T12:30:10.839Z,20.70
2019-05-09T12:31:10.908Z,20.81
2019-05-09T12:32:10.980Z,21.09
2019-05-09T12:33:11.052Z,21.27
2019-05-09T12:34:11.108Z,21.33
2019-05-09T12:35:11.176Z,21.37
2019-05-09T12:36:11.243Z,21.39
2019-05-09T12:37:11.332Z,21.54
2019-05-09T12:38:11.375Z,21.51
2019-05-09T12:39:11.443Z,21.24
2019-05-09T12:40:11.515Z,20.72
2019-05-09T12:41:11.580Z,20.82
2019-05-09T12:42:11.652Z,20.70
2019-05-09T12:43:11.721Z,20.63
2019-05-09T12:44:11.779Z,20.43
2019-05-09T12:45:11.847Z,20.29
2019-05-09T12:46:11.913Z,20.14
2019-05-09T12:47:11.996Z,19.92
2019-05-09T12:48:15.665Z,19.73
2019-05-09T12:49:12.116Z,19.59
2019-05-09T12:50:12.180Z,19.62
2019-05-09T12:51:12.249Z,19.73
2019-05-09T12:52:12.316Z,19.81
2019-05-09T12:53:12.405Z,19.74
2019-05-09T12:54:12.452Z,19.59
2019-05-09T12:55:13.134Z,19.63
2019-05-09T12:56:12.584Z,19.44
2019-05-09T12:57:12.649Z,19.41
2019-05-09T12:58:12.727Z,19.21